Latest Coastal Weather Observations for Darwin Airport

IDD60701

Issued at 5:31 pm CST Sunday 1 May 2016 (issued every 10 minutes, with the page automatically refreshed every 10 minutes)

About coastal observations | Map of coastal stations | Coastal observations for NT | Marine services | Other Formats
Station Details ID: 014015 Name: DARWIN AIRPORT Lat: -12.42 Lon: 130.89 Height: 30.4 m
Data from the previous 72 hours. | See also: Recent months at Darwin Airport
Date/Time
CST
Temp

°C
Wind Pressure Rain
since 9am
mm
Weather Cloud Vis
km
Sea
Height
m
Swell
Dir
 
Speed
knots
Gust
knots
hPa Trend Height
m
Period
s
Dir
01/05:00pm 31.4 NNE 10 15 1008.2 - 0.0 - Mostly clear 10 - - - -
01/04:30pm 32.0 NNE 11 15 1008.4 - 0.0 - Mostly clear 10 - - - -
01/04:00pm 32.4 N 16 20 1008.1 - 0.0 - Partly cloudy 10 - - - -
01/03:30pm 34.0 NNE 13 19 1008.1 - 0.0 - Partly cloudy 10 - - - -
01/03:00pm 34.1 N 9 13 1008.6 R 0.0 Fine Mostly cloudy 30 - - - -
01/02:30pm 33.7 ENE 8 12 1009.0 - 0.0 - Partly cloudy 10 - - - -
01/02:00pm 34.1 ENE 11 16 1009.3 - 0.0 - Partly cloudy 10 - - - -
01/01:30pm 33.1 E 10 16 1009.6 - 0.0 - Partly cloudy 10 - - - -
01/01:00pm 32.7 ENE 8 13 1010.1 - 0.0 - Mostly clear 10 - - - -
01/12:30pm 31.8 ENE 8 14 1010.5 - 0.0 - Mostly clear 10 - - - -
01/12:00pm 32.0 ENE 10 14 1010.8 F 0.0 Fine Partly cloudy 30 - - - -
01/11:30am 31.0 ENE 9 16 1011.3 - 0.0 - Mostly clear 10 - - - -
01/11:00am 31.5 E 11 15 1011.5 - 0.0 - Mostly clear 10 - - - -
01/10:30am 30.4 E 8 11 1011.6 - 0.0 - Mostly clear 10 - - - -
01/10:00am 29.8 E 9 12 1011.9 - 0.0 - Mostly clear 10 - - - -
01/09:30am 28.7 ESE 7 9 1012.1 - 0.0 - Mostly clear 10 - - - -
01/09:00am 28.0 SE 6 8 1012.0 F 5.0 Fine Mostly cloudy 30 - - - -
01/08:30am 27.8 ESE 4 6 1012.0 - 5.0 - Mostly clear 10 - - - -
01/08:00am 27.0 ESE 6 7 1011.8 - 5.0 - Mostly clear 10 - - - -
01/07:30am 26.5 ESE 7 9 1011.3 - 4.8 - Mostly clear 10 - - - -
01/07:00am 26.4 ESE 4 6 1011.2 - 4.8 - Mostly clear 10 - - - -
01/06:30am 26.3 ESE 4 5 1010.9 - 4.8 - Partly cloudy 10 - - - -
01/06:00am 25.9 CALM 0 0 1010.8 F 4.8 Fine Mostly cloudy 30 - - - -
01/05:30am 25.7 SE 3 5 1010.6 - 4.8 - Mostly clear 10 - - - -
01/05:00am 25.4 ESE 4 5 1010.6 - 4.8 - Partly cloudy 10 - - - -
01/04:30am 25.1 E 6 7 1010.2 - 4.6 - Partly cloudy 10 - - - -
01/04:00am 24.7 NNE 4 6 1010.8 - 4.6 - Partly cloudy 10 - - - -
01/03:33am 24.6 ESE 9 13 1010.0 - 4.6 - Partly cloudy 10 - - - -
01/03:30am 24.6 ESE 10 13 1009.9 - 4.6 - Partly cloudy 10 - - - -
01/03:10am 24.1 ENE 10 13 1010.7 - 3.0 - Partly cloudy 6 - - - -
01/03:00am 24.0 ENE 13 17 1010.9 R 1.8 Showers Cloudy 10 - - - -
01/02:44am 24.1 E 12 17 1010.6 - 1.6 Showers Mostly clear 10 - - - -
01/02:30am 24.3 E 18 26 1011.1 - 1.4 - Mostly clear 9 - - - -
01/02:28am 24.3 E 19 26 1011.1 - 1.2 Thunderstorm Mostly clear 8 - - - -
01/02:22am 24.8 E 22 32 1011.1 - 0.2 Thunderstorm Mostly clear 8 - - - -
01/02:18am 25.4 ESE 23 32 1011.1 - 0.0 Thunderstorm Mostly clear 8 - - - -
01/02:11am 26.5 SE 13 28 1011.1 - 0.0 Thunderstorm Mostly clear 8 - - - -
01/02:09am 26.8 SE 10 22 1011.1 - 0.0 Thunderstorm Mostly clear 8 - - - -
01/02:00am 28.1 S 6 7 1011.0 - 0.0 Showers Mostly clear 10 - - - -
01/01:30am 28.4 ESE 5 7 1010.7 - 0.0 - Mostly clear 10 - - - -
01/01:00am 27.9 W 1 5 1010.5 - 0.0 - Mostly clear 10 - - - -
01/12:30am 27.7 WSW 2 4 1010.9 - 0.0 - Mostly clear 10 - - - -
01/12:00am 27.6 WSW 4 4 1011.0 R 0.0 Lightning Mostly clear 30 - - - -
 
Date/Time
CST
Temp

°C
Wind Pressure Rain
since 9am
mm
Weather Cloud Vis
km
Sea
Height
m
Swell
Dir
 
Speed
knots
Gust
knots
hPa Trend Height
m
Period
s
Dir
30/11:30pm 28.7 SSW 5 6 1010.9 - 0.0 - Mostly clear 10 - - - -
30/11:00pm 29.0 SW 5 7 1010.8 - 0.0 - Mostly clear 10 - - - -
30/10:30pm 28.4 W 4 5 1010.9 - 0.0 - - 10 - - - -
30/10:00pm 29.0 W 5 6 1011.0 - 0.0 - - 10 - - - -
30/09:30pm 29.2 W 5 6 1011.0 - 0.0 - - 10 - - - -
30/09:00pm 29.5 WSW 7 9 1010.7 F 0.0 Fine Mostly clear 30 - - - -
30/08:30pm 29.4 WSW 6 7 1010.6 - 0.0 - - 10 - - - -
30/08:00pm 29.5 W 6 8 1010.2 - 0.0 - - 10 - - - -
30/07:30pm 29.7 WSW 7 9 1010.0 - 0.0 - Mostly clear 10 - - - -
30/07:00pm 30.2 WNW 8 9 1009.8 - 0.0 - Mostly clear 10 - - - -
30/06:30pm 30.5 WNW 7 9 1009.4 - 0.0 - Mostly clear 10 - - - -
30/06:00pm 31.0 WNW 9 11 1008.9 S 0.0 Fine Partly cloudy 30 - - - -
30/05:30pm 31.2 WNW 9 12 1008.5 - 0.0 - Mostly clear 10 - - - -
30/05:00pm 31.1 WNW 9 11 1008.0 - 0.0 - Mostly clear 10 - - - -
30/04:30pm 31.3 NNW 8 12 1007.9 - 0.0 - Mostly clear 10 - - - -
30/04:00pm 32.2 NNW 8 10 1008.0 - 0.0 - Mostly clear 10 - - - -
30/03:30pm 31.9 NNW 9 11 1008.1 - 0.0 - Mostly clear 10 - - - -
30/03:00pm 32.0 NW 9 13 1008.6 F 0.0 Fine Mostly cloudy 30 - - - -
30/02:30pm 32.5 NNW 9 11 1008.9 - 0.0 - Mostly clear 10 - - - -
30/02:00pm 31.1 NW 9 12 1009.5 - 0.0 - Partly cloudy 10 - - - -
30/01:30pm 33.1 NW 10 14 1009.9 - 0.0 - Partly cloudy 10 - - - -
30/01:00pm 32.0 WNW 10 13 1010.5 - 0.0 - Partly cloudy 10 - - - -
30/12:30pm 33.4 WNW 11 14 1011.2 - 0.0 - Partly cloudy 10 - - - -
30/12:00pm 33.0 E 5 10 1011.7 F 0.0 Fine Partly cloudy 30 - - - -
30/11:30am 33.1 ENE 9 13 1012.2 - 0.0 - Partly cloudy 10 - - - -
30/11:00am 32.2 ENE 5 7 1012.7 - 0.0 - Partly cloudy 10 - - - -
30/10:30am 31.6 E 6 8 1013.1 - 0.0 - Partly cloudy 10 - - - -
30/10:00am 31.2 E 5 8 1013.1 - 0.0 - Mostly clear 10 - - - -
30/09:30am 29.8 SE 5 7 1013.1 - 0.0 - Mostly clear 10 - - - -
30/09:00am 29.3 S 5 6 1012.8 R 0.0 Smoke Mostly cloudy 25 - - - -
30/08:30am 28.7 SE 5 7 1012.6 - 0.0 - Mostly clear 10 - - - -
30/08:00am 27.5 ESE 6 7 1012.3 - 0.0 - Mostly clear 10 - - - -
30/07:30am 26.3 ESE 7 8 1012.1 - 0.0 - Mostly clear 10 - - - -
30/07:00am 25.7 E 6 7 1012.0 - 0.0 - Mostly clear 10 - - - -
30/06:30am 25.6 SE 5 6 1011.4 - 0.0 - - 10 - - - -
30/06:00am 25.4 ESE 3 4 1011.1 R 0.0 Fine Mostly clear 25 - - - -
30/05:30am 25.6 ESE 5 6 1011.0 - 0.0 - - 10 - - - -
30/05:00am 25.8 E 6 6 1010.9 - 0.0 - - 10 - - - -
30/04:30am 25.9 ESE 5 5 1010.5 - 0.0 - - 10 - - - -
30/04:00am 26.0 S 4 5 1010.5 - 0.0 - - 10 - - - -
30/03:30am 26.6 SW 5 6 1010.2 - 0.0 - - 10 - - - -
30/03:00am 26.1 WSW 4 5 1010.3 R 0.0 - - 10 - - - -
30/02:30am 26.3 WSW 4 4 1010.3 - 0.0 - - 10 - - - -
30/02:00am 26.7 WSW 4 5 1010.4 - 0.0 - - 10 - - - -
30/01:30am 27.3 WSW 5 6 1010.7 - 0.0 - - 10 - - - -
30/01:00am 28.2 SW 5 6 1010.9 - 0.0 - - 10 - - - -
30/12:30am 28.5 WSW 6 6 1011.1 - 0.0 - - 10 - - - -
30/12:00am 28.5 WSW 6 7 1011.3 F 0.0 Fine Mostly clear 30 - - - -
 
Date/Time
CST
Temp

°C
Wind Pressure Rain
since 9am
mm
Weather Cloud Vis
km
Sea
Height
m
Swell
Dir
 
Speed
knots
Gust
knots
hPa Trend Height
m
Period
s
Dir
29/11:30pm 28.7 WSW 5 6 1011.7 - 0.0 - - 10 - - - -
29/11:00pm 28.9 WSW 5 6 1011.8 - 0.0 - Mostly clear 10 - - - -
29/10:30pm 28.6 WNW 5 8 1012.0 - 0.0 - - 10 - - - -
29/10:00pm 28.7 WNW 6 6 1012.1 - 0.0 - - 10 - - - -
29/09:30pm 28.3 N 5 6 1012.2 - 0.0 - Mostly clear 10 - - - -
29/09:00pm 29.2 NNW 6 7 1012.1 R 0.0 Fine Mostly clear 30 - - - -
29/08:30pm 29.7 NW 5 7 1011.8 - 0.0 - Mostly clear 10 - - - -
29/08:00pm 29.7 WNW 6 7 1011.5 - 0.0 - Mostly clear 10 - - - -
29/07:30pm 29.8 WNW 7 8 1011.0 - 0.0 - Mostly clear 10 - - - -
29/07:00pm 29.9 WNW 7 9 1010.6 - 0.0 - Mostly clear 10 - - - -
29/06:30pm 30.0 WNW 8 10 1010.3 - 0.0 - Mostly clear 10 - - - -
29/06:00pm 30.5 NW 9 11 1010.0 R 0.0 Distant precip. Partly cloudy 30 - - - -
29/05:30pm 31.0 NW 9 11 1009.7 - 0.0 - Mostly clear 10 - - - -
29/05:00pm 30.8 W 7 8 1009.3 - 0.0 - Mostly clear 10 - - - -
29/04:30pm 31.7 WNW 10 13 1009.1 - 0.0 - Mostly clear 10 - - - -
29/04:00pm 32.9 WNW 9 11 1008.8 - 0.0 - Mostly clear 10 - - - -
29/03:30pm 32.3 NW 9 12 1009.0 - 0.0 - Mostly clear 10 - - - -
29/03:00pm 32.3 NNW 7 10 1009.3 F 0.0 Smoke Mostly clear 30 - - - -
29/02:30pm 33.1 NW 5 6 1009.5 - 0.0 - Mostly clear 10 - - - -
29/02:00pm 32.8 NNW 5 9 1009.9 - 0.0 - Mostly clear 10 - - - -
29/01:30pm 31.0 NNE 9 11 1010.2 - 0.0 - Mostly clear 10 - - - -
29/01:00pm 29.2 NE 10 15 1010.7 - 0.0 - Partly cloudy 10 - - - -
29/12:30pm 31.9 NNW 5 7 1011.1 - 0.0 - Partly cloudy 10 - - - -
29/12:00pm 30.1 WNW 4 6 1011.8 S 0.0 Distant precip. Partly cloudy 30 - - - -
29/11:30am 31.1 SSW 5 8 1012.2 - 0.0 - Partly cloudy 10 - - - -
29/11:00am 31.2 SSE 5 8 1012.7 - 0.0 - Partly cloudy 10 - - - -
29/10:30am 30.6 SSE 6 9 1012.8 - 0.0 - Partly cloudy 10 - - - -
29/10:00am 30.7 S 5 6 1012.8 - 0.0 - Partly cloudy 10 - - - -
29/09:30am 30.4 SSE 5 6 1012.6 - 0.0 - Mostly clear 10 - - - -
29/09:00am 29.6 SE 5 7 1012.5 R 0.0 Fine Mostly clear 30 - - - -
29/08:30am 28.8 SW 6 7 1012.3 - 0.0 - Mostly clear 10 - - - -
29/08:00am 27.8 SW 4 5 1012.0 - 0.0 - Mostly clear 10 - - - -
29/07:30am 27.0 SW 4 5 1011.8 - 0.0 - Mostly clear 10 - - - -
29/07:00am 26.9 SW 4 5 1011.5 - 0.0 - Mostly clear 10 - - - -
29/06:30am 27.0 SW 4 5 1011.1 - 0.0 - Mostly clear 10 - - - -
29/06:00am 27.1 SW 5 5 1010.9 F 0.0 Fine Mostly cloudy 30 - - - -
29/05:30am 27.2 SW 4 4 1010.7 - 0.0 - Cloudy 10 - - - -
29/05:00am 27.5 SW 3 4 1010.5 - 0.0 - Partly cloudy 10 - - - -
29/04:30am 27.6 SW 5 6 1010.5 - 0.0 - Partly cloudy 10 - - - -
29/04:00am 28.1 SW 5 6 1010.5 - 0.0 - Cloudy 10 - - - -
29/03:30am 28.2 WSW 4 5 1010.6 - 0.0 - Cloudy 10 - - - -
29/03:00am 27.1 WSW 1 3 1010.8 R 0.0 - Mostly cloudy 10 - - - -
29/02:30am 27.5 WSW 4 5 1010.8 - 0.0 - Cloudy 10 - - - -
29/02:00am 27.0 CALM 0 0 1011.2 - 0.0 - Mostly clear 10 - - - -
29/01:30am 26.9 W 4 4 1011.3 - 0.0 - Mostly clear 10 - - - -
29/01:00am 27.1 W 5 5 1011.5 - 0.0 - Mostly clear 10 - - - -
29/12:30am 27.4 WNW 4 5 1011.5 - 0.0 - Mostly clear 10 - - - -
29/12:00am 28.0 NNW 4 5 1011.5 R 0.0 Fine Mostly clear 30 - - - -
 
Date/Time
CST
Temp

°C
Wind Pressure Rain
since 9am
mm
Weather Cloud Vis
km
Sea
Height
m
Swell
Dir
 
Speed
knots
Gust
knots
hPa Trend Height
m
Period
s
Dir
28/11:30pm 28.4 NNW 6 7 1011.6 - 0.0 - Mostly clear 10 - - - -
28/11:00pm 29.1 NNW 7 10 1011.7 - 0.0 - Mostly clear 10 - - - -
28/10:30pm 28.9 NNW 6 7 1011.8 - 0.0 - Partly cloudy 10 - - - -
28/10:00pm 28.7 N 6 7 1011.7 - 0.0 - - 10 - - - -
28/09:30pm 29.0 N 8 9 1011.6 - 0.0 - Partly cloudy 10 - - - -
28/09:00pm 29.3 N 7 10 1011.2 S 0.0 Fine Partly cloudy 30 - - - -
28/08:30pm 29.3 NNE 6 7 1010.6 - 0.0 - Cloudy 10 - - - -
28/08:00pm 29.4 NNE 7 8 1010.2 - 0.0 - Cloudy 10 - - - -
28/07:30pm 29.8 NNE 7 10 1010.0 - 0.0 - Mostly clear 10 - - - -
28/07:00pm 30.5 NNE 8 10 1009.9 - 0.0 - Mostly clear 10 - - - -
28/06:30pm 30.9 N 9 10 1009.7 - 0.0 - Mostly clear 10 - - - -
28/06:00pm 31.1 N 11 13 1009.3 R 0.0 Fine Mostly cloudy 30 - - - -

Other Formats:

Comma delimited format used in spreadsheet applications
http://www.bom.gov.au/fwo/IDD60701/IDD60701.94120.axf

JavaScript Object Notation format (JSON) in row-major order
http://www.bom.gov.au/fwo/IDD60701/IDD60701.94120.json